createdAt,value
2023-01-30T00:01:20.253Z,86.67
2023-01-30T00:03:48.194Z,86.81
2023-01-30T00:06:16.223Z,86.68
2023-01-30T00:08:44.099Z,87.13
2023-01-30T00:11:12.983Z,86.80
2023-01-30T00:13:40.949Z,87.11
2023-01-30T00:16:10.776Z,86.43
2023-01-30T00:18:39.766Z,86.50
2023-01-30T00:21:09.160Z,87.03
2023-01-30T00:23:37.744Z,86.89
2023-01-30T00:26:06.274Z,86.93
2023-01-30T00:28:34.528Z,86.63
2023-01-30T00:31:02.449Z,86.80
2023-01-30T00:33:30.412Z,86.75
2023-01-30T00:35:58.424Z,86.98
2023-01-30T00:38:26.339Z,87.11
2023-01-30T00:40:54.234Z,87.18
2023-01-30T00:43:40.553Z,87.46
2023-01-30T00:46:32.995Z,87.53
2023-01-30T00:49:00.818Z,88.00
2023-01-30T00:51:28.736Z,88.07
2023-01-30T00:53:56.566Z,87.11
2023-01-30T00:56:24.379Z,87.85
2023-01-30T00:58:52.241Z,87.89
2023-01-30T01:01:20.127Z,87.45
2023-01-30T01:03:48.105Z,87.26
2023-01-30T01:06:15.946Z,87.15
2023-01-30T01:08:43.804Z,87.45
2023-01-30T01:11:11.666Z,87.78
2023-01-30T01:13:39.507Z,88.24
2023-01-30T01:16:07.532Z,88.08
2023-01-30T01:18:35.410Z,88.52
2023-01-30T01:21:03.172Z,88.75
2023-01-30T01:23:30.959Z,88.76
2023-01-30T01:26:03.093Z,89.02
2023-01-30T01:28:31.372Z,89.02
2023-01-30T01:30:59.192Z,88.49
2023-01-30T01:33:30.233Z,88.65
2023-01-30T01:35:58.307Z,88.83
2023-01-30T01:38:26.182Z,89.08
2023-01-30T01:41:11.187Z,88.95
2023-01-30T01:44:13.759Z,88.62
2023-01-30T01:46:48.959Z,88.38
2023-01-30T01:49:36.383Z,88.57
2023-01-30T01:52:14.853Z,88.58
2023-01-30T01:54:51.679Z,88.24
2023-01-30T01:57:27.662Z,88.60
2023-01-30T02:00:03.625Z,88.46
2023-01-30T02:02:31.428Z,88.93
2023-01-30T02:05:07.547Z,88.48
2023-01-30T02:07:41.073Z,88.65
2023-01-30T02:10:09.946Z,88.87
2023-01-30T02:12:38.301Z,88.58
2023-01-30T02:15:06.714Z,88.66
2023-01-30T02:17:34.501Z,88.42
2023-01-30T02:20:04.941Z,88.91
2023-01-30T02:22:56.564Z,88.70
2023-01-30T02:25:42.604Z,89.13
2023-01-30T02:28:22.356Z,88.87
2023-01-30T02:31:27.787Z,88.04
2023-01-30T02:34:10.690Z,88.26
2023-01-30T02:37:02.608Z,87.33
2023-01-30T02:39:43.354Z,87.43
2023-01-30T02:42:39.069Z,88.54
2023-01-30T02:45:49.193Z,88.42
2023-01-30T02:48:39.841Z,88.21
2023-01-30T02:51:11.070Z,88.19
2023-01-30T02:53:39.068Z,88.03
2023-01-30T02:56:07.829Z,88.11
2023-01-30T02:58:47.740Z,88.53
2023-01-30T03:01:21.255Z,88.19
2023-01-30T03:04:07.269Z,88.36
2023-01-30T03:06:38.355Z,87.74
2023-01-30T03:09:08.662Z,87.52
2023-01-30T03:12:07.353Z,87.29
2023-01-30T03:14:47.392Z,87.42
2023-01-30T03:17:15.142Z,88.52
2023-01-30T03:19:43.464Z,87.97
2023-01-30T03:22:11.207Z,88.35
2023-01-30T03:24:39.040Z,88.42
2023-01-30T03:27:12.255Z,88.44
2023-01-30T03:29:40.481Z,88.47
2023-01-30T03:32:08.583Z,89.00
2023-01-30T03:34:36.387Z,88.63
2023-01-30T03:37:05.075Z,88.11
2023-01-30T03:39:32.901Z,88.29
2023-01-30T03:42:00.746Z,88.58
2023-01-30T03:44:28.531Z,87.71
2023-01-30T03:46:56.416Z,88.11
2023-01-30T03:49:24.409Z,88.21
2023-01-30T03:51:52.134Z,88.27
2023-01-30T03:54:19.945Z,87.91
2023-01-30T03:56:47.851Z,87.86
2023-01-30T03:59:15.575Z,88.35
2023-01-30T04:01:43.364Z,88.03
2023-01-30T04:04:11.366Z,87.59
2023-01-30T04:06:39.110Z,87.99
2023-01-30T04:09:06.987Z,87.56
2023-01-30T04:11:34.753Z,87.49
2023-01-30T04:14:02.527Z,87.66
2023-01-30T04:16:30.417Z,88.26
2023-01-30T04:18:58.176Z,88.46
2023-01-30T04:21:25.982Z,88.07
2023-01-30T04:23:53.785Z,88.37
2023-01-30T04:26:21.750Z,87.84
2023-01-30T04:28:49.486Z,87.64
2023-01-30T04:31:17.395Z,88.26
2023-01-30T04:33:45.133Z,88.70
2023-01-30T04:36:13.886Z,87.72
2023-01-30T04:38:41.740Z,87.83
2023-01-30T04:41:09.726Z,87.78
2023-01-30T04:43:37.522Z,87.96
2023-01-30T04:46:05.429Z,88.11
2023-01-30T04:48:33.380Z,88.42
2023-01-30T04:51:01.305Z,88.38
2023-01-30T04:53:29.359Z,88.57
2023-01-30T04:55:57.212Z,88.68
2023-01-30T04:58:25.123Z,88.82
2023-01-30T05:00:52.847Z,89.07
2023-01-30T05:03:20.715Z,89.00
2023-01-30T05:05:48.574Z,88.72
2023-01-30T05:08:16.944Z,88.62
2023-01-30T05:10:44.758Z,88.97
2023-01-30T05:13:12.535Z,88.76
2023-01-30T05:15:40.379Z,88.95
2023-01-30T05:18:08.174Z,89.40
2023-01-30T05:20:35.893Z,89.31
2023-01-30T05:23:03.692Z,89.38
2023-01-30T05:25:31.482Z,89.41
2023-01-30T05:27:59.345Z,89.27
2023-01-30T05:30:27.231Z,88.99
2023-01-30T05:32:55.137Z,88.70
2023-01-30T05:35:22.955Z,89.19
2023-01-30T05:37:53.906Z,89.44
2023-01-30T05:40:21.764Z,89.93
2023-01-30T05:42:49.654Z,88.95
2023-01-30T05:45:17.725Z,89.29
2023-01-30T05:47:45.671Z,89.00
2023-01-30T05:50:13.561Z,88.33
2023-01-30T05:52:41.351Z,88.36
2023-01-30T05:55:09.612Z,88.47
2023-01-30T05:57:37.394Z,88.41
2023-01-30T06:00:06.600Z,88.44
2023-01-30T06:02:34.667Z,88.60
2023-01-30T06:05:02.494Z,88.80
2023-01-30T06:07:30.458Z,88.73
2023-01-30T06:09:58.322Z,88.90
2023-01-30T06:12:26.202Z,88.73
2023-01-30T06:14:54.055Z,88.76
2023-01-30T06:17:21.924Z,88.48
2023-01-30T06:19:49.688Z,87.60
2023-01-30T06:22:17.462Z,87.31
2023-01-30T06:24:45.345Z,87.34
2023-01-30T06:27:13.096Z,87.17
2023-01-30T06:29:40.887Z,87.27
2023-01-30T06:32:10.603Z,87.88
2023-01-30T06:34:38.504Z,86.94
2023-01-30T06:37:06.364Z,86.92
2023-01-30T06:39:34.246Z,86.79
2023-01-30T06:42:02.013Z,86.34
2023-01-30T06:44:29.814Z,87.08
2023-01-30T06:46:57.574Z,86.82
2023-01-30T06:49:25.350Z,86.49
2023-01-30T06:51:53.126Z,86.75
2023-01-30T06:54:20.875Z,86.96
2023-01-30T06:56:48.747Z,88.30
2023-01-30T06:59:16.600Z,100.00
2023-01-30T07:01:44.427Z,100.00
2023-01-30T07:04:17.009Z,98.31
2023-01-30T07:06:44.821Z,95.51
2023-01-30T07:09:13.074Z,85.90
2023-01-30T07:11:40.881Z,86.61
2023-01-30T07:14:08.749Z,86.30
2023-01-30T07:16:36.614Z,86.00
2023-01-30T07:19:04.492Z,86.04
2023-01-30T07:21:32.254Z,86.49
2023-01-30T07:24:00.634Z,85.33
2023-01-30T07:26:30.865Z,86.62
2023-01-30T07:28:58.793Z,86.56
2023-01-30T07:31:26.757Z,86.52
2023-01-30T07:33:54.552Z,87.03
2023-01-30T07:36:22.396Z,87.14
2023-01-30T07:38:50.874Z,87.55
2023-01-30T07:41:18.750Z,87.27
2023-01-30T07:43:46.557Z,87.49
2023-01-30T07:46:14.276Z,87.64
2023-01-30T07:48:42.091Z,87.65
2023-01-30T07:51:09.932Z,88.03
2023-01-30T07:53:37.810Z,87.89
2023-01-30T07:56:11.888Z,87.81
2023-01-30T07:58:39.763Z,88.28
2023-01-30T08:01:07.743Z,89.12
2023-01-30T08:03:35.551Z,87.48
2023-01-30T08:06:03.421Z,86.71
2023-01-30T08:08:31.328Z,84.00
2023-01-30T08:10:59.051Z,79.14
2023-01-30T08:13:26.833Z,78.24
2023-01-30T08:15:54.715Z,75.66
2023-01-30T08:18:22.501Z,74.67
2023-01-30T08:20:50.370Z,73.92
2023-01-30T08:23:18.067Z,74.75
2023-01-30T08:25:45.871Z,73.96
2023-01-30T08:28:13.691Z,75.48
2023-01-30T08:30:42.891Z,75.15
2023-01-30T08:33:10.710Z,76.03
2023-01-30T08:35:38.578Z,74.82
2023-01-30T08:38:12.386Z,75.04
2023-01-30T08:40:40.201Z,74.59
2023-01-30T08:43:08.192Z,76.13
2023-01-30T08:45:36.114Z,77.58
2023-01-30T08:48:05.665Z,78.18
2023-01-30T08:50:34.029Z,78.69
2023-01-30T08:53:06.825Z,78.59
2023-01-30T08:55:34.695Z,78.99
2023-01-30T08:58:02.586Z,79.45
2023-01-30T09:00:30.525Z,78.60
2023-01-30T09:02:58.642Z,78.41
2023-01-30T09:05:26.586Z,79.36
2023-01-30T09:07:54.479Z,79.76
2023-01-30T09:10:23.446Z,78.99
2023-01-30T09:12:51.433Z,78.75
2023-01-30T09:15:19.438Z,78.91
2023-01-30T09:17:47.340Z,78.37
2023-01-30T09:20:15.262Z,79.34
2023-01-30T09:22:43.152Z,79.70
2023-01-30T09:25:11.259Z,79.66
2023-01-30T09:27:39.148Z,78.44
2023-01-30T09:30:07.657Z,78.13
2023-01-30T09:32:38.654Z,77.26
2023-01-30T09:35:06.648Z,75.16
2023-01-30T09:37:34.518Z,73.99
2023-01-30T09:40:02.354Z,74.95
2023-01-30T09:42:39.087Z,72.67
2023-01-30T09:45:40.142Z,73.37
2023-01-30T09:48:13.857Z,72.82
2023-01-30T09:50:56.958Z,71.77
2023-01-30T09:53:55.159Z,70.56
2023-01-30T09:56:22.948Z,70.68
2023-01-30T09:58:56.216Z,71.15
2023-01-30T10:01:47.005Z,70.14
2023-01-30T10:04:24.410Z,69.84
2023-01-30T10:07:13.259Z,70.82
2023-01-30T10:09:55.345Z,69.76
2023-01-30T10:12:38.359Z,68.99
2023-01-30T10:15:23.682Z,69.01
2023-01-30T10:18:11.905Z,69.57
2023-01-30T10:21:17.258Z,69.47
2023-01-30T10:23:57.089Z,68.47
2023-01-30T10:26:26.939Z,67.58
2023-01-30T10:29:09.773Z,68.49
2023-01-30T10:31:48.193Z,67.31
2023-01-30T10:34:25.443Z,67.33
2023-01-30T10:37:01.636Z,68.28
2023-01-30T10:39:40.848Z,69.18
2023-01-30T10:42:16.018Z,68.35
2023-01-30T10:44:44.095Z,67.82
2023-01-30T10:47:34.783Z,65.58
2023-01-30T10:50:19.351Z,65.50
2023-01-30T10:53:22.017Z,65.68
2023-01-30T10:55:52.441Z,65.70
2023-01-30T10:58:56.248Z,64.06
2023-01-30T11:01:45.508Z,63.13
2023-01-30T11:04:22.203Z,63.51
2023-01-30T11:06:50.077Z,64.17
2023-01-30T11:09:18.081Z,63.92
2023-01-30T11:11:51.119Z,63.96
2023-01-30T11:14:19.107Z,62.96
2023-01-30T11:16:54.758Z,60.95
2023-01-30T11:19:42.217Z,60.34
2023-01-30T11:22:14.446Z,59.82
2023-01-30T11:24:43.846Z,60.42
2023-01-30T11:27:21.238Z,59.70
2023-01-30T11:29:51.532Z,57.34
2023-01-30T11:32:38.433Z,56.77
2023-01-30T11:35:09.426Z,55.45
2023-01-30T11:37:38.722Z,55.14
2023-01-30T11:40:18.884Z,54.77
2023-01-30T11:43:01.298Z,55.04
2023-01-30T11:45:31.610Z,55.68
2023-01-30T11:48:04.582Z,55.21
2023-01-30T11:50:49.688Z,54.70
2023-01-30T11:53:31.325Z,52.90
2023-01-30T11:56:05.689Z,52.94
2023-01-30T11:58:36.286Z,52.35
2023-01-30T12:01:04.366Z,52.91
2023-01-30T12:03:32.532Z,52.73
2023-01-30T12:06:00.555Z,53.14
2023-01-30T12:08:42.233Z,52.74
2023-01-30T12:11:27.629Z,53.46
2023-01-30T12:13:58.965Z,52.54
2023-01-30T12:16:33.225Z,53.17
2023-01-30T12:19:06.401Z,54.34
2023-01-30T12:22:11.121Z,54.09
2023-01-30T12:25:04.138Z,54.52
2023-01-30T12:27:49.688Z,55.03
2023-01-30T12:33:07.544Z,56.13
2023-01-30T12:35:54.496Z,56.95
2023-01-30T12:38:25.302Z,57.65
2023-01-30T12:40:55.821Z,58.03
2023-01-30T12:43:55.869Z,58.67
2023-01-30T12:46:39.779Z,58.66
2023-01-30T12:49:31.952Z,59.03
2023-01-30T12:52:18.479Z,59.47
2023-01-30T12:54:49.570Z,60.01
2023-01-30T12:57:23.441Z,60.94
2023-01-30T13:00:05.007Z,60.46
2023-01-30T13:03:04.038Z,61.76
2023-01-30T13:05:34.677Z,61.12
2023-01-30T13:08:11.262Z,62.06
2023-01-30T13:10:58.125Z,62.16
2023-01-30T13:13:50.150Z,63.01
2023-01-30T13:16:32.357Z,63.03
2023-01-30T13:19:09.129Z,62.68
2023-01-30T13:21:48.007Z,63.29
2023-01-30T13:24:19.885Z,63.83
2023-01-30T13:26:47.749Z,63.85
2023-01-30T13:29:37.279Z,64.13
2023-01-30T13:32:07.235Z,64.47
2023-01-30T13:34:39.759Z,63.74
2023-01-30T13:37:13.634Z,64.45
2023-01-30T13:40:00.879Z,64.72
2023-01-30T13:42:48.588Z,64.77
2023-01-30T13:45:24.137Z,63.91
2023-01-30T13:48:30.464Z,64.64
2023-01-30T13:50:58.092Z,64.46
2023-01-30T13:53:43.588Z,64.55
2023-01-30T13:56:40.311Z,65.30
2023-01-30T13:59:37.325Z,65.00
2023-01-30T14:02:05.098Z,63.96
2023-01-30T14:04:41.959Z,65.25
2023-01-30T14:07:16.791Z,65.12
2023-01-30T14:09:47.817Z,66.06
2023-01-30T14:12:25.788Z,65.07
2023-01-30T14:15:12.550Z,66.17
2023-01-30T14:17:40.911Z,66.06
2023-01-30T14:20:16.626Z,66.32
2023-01-30T14:22:54.034Z,66.11
2023-01-30T14:25:34.340Z,66.36
2023-01-30T14:28:02.811Z,66.26
2023-01-30T14:31:00.798Z,66.58
2023-01-30T14:33:28.506Z,65.45
2023-01-30T14:36:02.467Z,67.52
2023-01-30T14:38:40.057Z,67.00
2023-01-30T14:41:10.616Z,67.67
2023-01-30T14:43:38.356Z,67.63
2023-01-30T14:46:21.351Z,67.72
2023-01-30T14:48:51.752Z,67.92
2023-01-30T14:51:46.467Z,68.92
2023-01-30T14:54:14.339Z,68.77
2023-01-30T14:57:00.294Z,68.84
2023-01-30T14:59:33.736Z,69.12
2023-01-30T15:02:14.856Z,69.42
2023-01-30T15:04:44.528Z,69.58
2023-01-30T15:07:18.731Z,69.88
2023-01-30T15:10:31.861Z,70.37
2023-01-30T15:13:08.500Z,70.24
2023-01-30T15:15:59.753Z,70.24
2023-01-30T15:18:42.787Z,70.52
2023-01-30T15:21:41.751Z,71.19
2023-01-30T15:24:34.336Z,70.82
2023-01-30T15:27:14.432Z,71.38
2023-01-30T15:30:23.499Z,71.90
2023-01-30T15:32:51.483Z,72.35
2023-01-30T15:35:19.977Z,73.18
2023-01-30T15:37:47.773Z,73.40
2023-01-30T15:40:21.864Z,74.48
2023-01-30T15:43:02.126Z,74.51
2023-01-30T15:45:52.789Z,74.57
2023-01-30T15:48:49.101Z,73.76
2023-01-30T15:51:17.529Z,74.62
2023-01-30T15:53:46.441Z,74.73
2023-01-30T15:56:20.298Z,74.67
2023-01-30T15:58:48.252Z,75.45
2023-01-30T16:01:25.514Z,76.37
2023-01-30T16:03:54.536Z,75.72
2023-01-30T16:06:25.841Z,77.51
2023-01-30T16:09:04.959Z,77.29
2023-01-30T16:11:39.960Z,76.56
2023-01-30T16:14:12.270Z,76.76
2023-01-30T16:16:40.102Z,77.35
2023-01-30T16:19:09.011Z,77.99
2023-01-30T16:21:38.225Z,78.70
2023-01-30T16:24:21.663Z,78.67
2023-01-30T16:26:50.635Z,80.08
2023-01-30T16:29:20.537Z,81.61
2023-01-30T16:31:49.179Z,82.57
2023-01-30T16:34:36.100Z,83.08
2023-01-30T16:37:08.862Z,84.24
2023-01-30T16:39:37.890Z,86.24
2023-01-30T16:42:22.337Z,86.83
2023-01-30T16:44:50.199Z,88.57
2023-01-30T16:47:28.221Z,89.69
2023-01-30T16:49:56.511Z,90.73
2023-01-30T16:52:37.985Z,91.40
2023-01-30T16:55:07.913Z,90.52
2023-01-30T16:57:39.797Z,91.83
2023-01-30T17:00:11.055Z,91.20
2023-01-30T17:02:40.913Z,91.99
2023-01-30T17:05:32.641Z,90.78
2023-01-30T17:08:01.607Z,91.60
2023-01-30T17:10:29.471Z,91.17
2023-01-30T17:12:57.446Z,91.85
2023-01-30T17:15:33.339Z,91.18
2023-01-30T17:18:01.238Z,92.57
2023-01-30T17:20:36.700Z,90.80
2023-01-30T17:23:06.831Z,92.03
2023-01-30T17:25:39.356Z,92.13
2023-01-30T17:28:08.205Z,93.00
2023-01-30T17:30:36.341Z,92.63
2023-01-30T17:33:04.153Z,91.75
2023-01-30T17:35:31.971Z,91.25
2023-01-30T17:38:05.415Z,92.13
2023-01-30T17:40:37.317Z,92.40
2023-01-30T17:43:05.741Z,92.38
2023-01-30T17:45:33.612Z,91.74
2023-01-30T17:48:01.587Z,91.95
2023-01-30T17:50:29.757Z,92.38
2023-01-30T17:52:57.650Z,92.95
2023-01-30T17:55:25.470Z,93.64
2023-01-30T17:57:54.281Z,94.44
2023-01-30T18:00:22.951Z,94.13
2023-01-30T18:02:50.981Z,94.24
2023-01-30T18:05:18.822Z,94.90
2023-01-30T18:07:46.676Z,94.55
2023-01-30T18:10:19.879Z,94.08
2023-01-30T18:12:48.135Z,94.18
2023-01-30T18:15:17.076Z,95.05
2023-01-30T18:17:49.087Z,95.72
2023-01-30T18:20:19.422Z,95.80
2023-01-30T18:22:47.602Z,95.83
2023-01-30T18:25:15.734Z,95.69
2023-01-30T18:27:45.244Z,95.95
2023-01-30T18:30:17.031Z,96.12
2023-01-30T18:32:52.424Z,95.79
2023-01-30T18:35:21.163Z,96.22
2023-01-30T18:37:49.049Z,97.02
2023-01-30T18:40:17.039Z,97.23
2023-01-30T18:42:44.960Z,97.02
2023-01-30T18:45:12.844Z,96.91
2023-01-30T18:47:40.656Z,96.95
2023-01-30T18:50:08.721Z,96.72
2023-01-30T18:52:36.679Z,97.22
2023-01-30T18:55:04.611Z,97.53
2023-01-30T18:57:32.595Z,97.90
2023-01-30T19:00:00.467Z,98.67
2023-01-30T19:02:28.295Z,97.69
2023-01-30T19:04:56.108Z,98.64
2023-01-30T19:07:24.133Z,98.70
2023-01-30T19:09:51.930Z,98.99
2023-01-30T19:12:38.369Z,99.82
2023-01-30T19:15:07.202Z,99.81
2023-01-30T19:17:35.074Z,99.88
2023-01-30T19:20:03.766Z,99.54
2023-01-30T19:22:31.613Z,100.00
2023-01-30T19:24:59.566Z,100.00
2023-01-30T19:27:27.562Z,100.00
2023-01-30T19:29:55.419Z,100.00
2023-01-30T19:32:23.311Z,100.00
2023-01-30T19:34:51.162Z,100.00
2023-01-30T19:37:19.144Z,100.00
2023-01-30T19:39:47.058Z,100.00
2023-01-30T19:42:17.204Z,100.00
2023-01-30T19:44:45.180Z,100.00
2023-01-30T19:47:13.037Z,100.00
2023-01-30T19:49:41.026Z,100.00
2023-01-30T19:52:08.942Z,100.00
2023-01-30T19:54:36.713Z,100.00
2023-01-30T19:57:04.601Z,100.00
2023-01-30T19:59:32.479Z,100.00
2023-01-30T20:02:00.483Z,100.00
2023-01-30T20:04:28.401Z,100.00
2023-01-30T20:06:56.321Z,100.00
2023-01-30T20:09:24.210Z,100.00
2023-01-30T20:11:52.072Z,100.00
2023-01-30T20:14:20.017Z,100.00
2023-01-30T20:16:47.867Z,100.00
2023-01-30T20:19:17.250Z,100.00
2023-01-30T20:21:45.511Z,100.00
2023-01-30T20:24:14.541Z,100.00
2023-01-30T20:26:42.778Z,100.00
2023-01-30T20:29:10.822Z,100.00
2023-01-30T20:31:41.818Z,100.00
2023-01-30T20:34:12.352Z,100.00
2023-01-30T20:36:40.328Z,100.00
2023-01-30T20:39:09.521Z,100.00
2023-01-30T20:41:38.839Z,100.00
2023-01-30T20:44:08.328Z,100.00
2023-01-30T20:46:42.050Z,100.00
2023-01-30T20:49:22.355Z,100.00
2023-01-30T20:51:51.915Z,100.00
2023-01-30T20:54:21.060Z,100.00
2023-01-30T20:56:50.663Z,100.00
2023-01-30T20:59:20.284Z,100.00
2023-01-30T21:01:48.233Z,100.00
2023-01-30T21:04:16.826Z,100.00
2023-01-30T21:06:45.941Z,100.00
2023-01-30T21:09:19.212Z,100.00
2023-01-30T21:11:47.236Z,100.00
2023-01-30T21:14:15.247Z,100.00
2023-01-30T21:16:43.420Z,100.00
2023-01-30T21:19:13.857Z,100.00
2023-01-30T21:21:46.953Z,100.00
2023-01-30T21:24:15.610Z,100.00
2023-01-30T21:26:47.079Z,100.00
2023-01-30T21:29:16.303Z,100.00
2023-01-30T21:31:45.405Z,100.00
2023-01-30T21:34:13.466Z,100.00
2023-01-30T21:36:41.432Z,100.00
2023-01-30T21:39:30.775Z,100.00
2023-01-30T21:42:17.575Z,100.00
2023-01-30T21:44:45.929Z,100.00
2023-01-30T21:47:14.083Z,100.00
2023-01-30T21:49:42.927Z,100.00
2023-01-30T21:52:10.751Z,100.00
2023-01-30T21:54:39.099Z,100.00
2023-01-30T21:57:07.007Z,100.00
2023-01-30T21:59:34.794Z,100.00
2023-01-30T22:02:02.641Z,100.00
2023-01-30T22:04:30.415Z,100.00
2023-01-30T22:06:58.136Z,100.00
2023-01-30T22:09:26.016Z,100.00
2023-01-30T22:11:55.466Z,100.00
2023-01-30T22:14:23.417Z,100.00
2023-01-30T22:16:51.369Z,100.00
2023-01-30T22:19:19.237Z,100.00
2023-01-30T22:21:47.119Z,100.00
2023-01-30T22:24:14.911Z,100.00
2023-01-30T22:26:42.865Z,100.00
2023-01-30T22:29:10.726Z,100.00
2023-01-30T22:31:39.750Z,100.00
2023-01-30T22:34:07.671Z,100.00
2023-01-30T22:36:36.170Z,100.00
2023-01-30T22:39:04.640Z,100.00
2023-01-30T22:41:36.250Z,100.00
2023-01-30T22:44:05.239Z,100.00
2023-01-30T22:46:34.702Z,100.00
2023-01-30T22:49:02.799Z,100.00
2023-01-30T22:51:32.410Z,100.00
2023-01-30T22:54:01.917Z,100.00
2023-01-30T22:56:31.839Z,100.00
2023-01-30T22:58:59.689Z,100.00
2023-01-30T23:01:31.826Z,100.00
2023-01-30T23:04:01.399Z,100.00
2023-01-30T23:06:29.298Z,100.00
2023-01-30T23:08:57.116Z,100.00
2023-01-30T23:11:27.303Z,100.00
2023-01-30T23:13:56.340Z,100.00
2023-01-30T23:16:26.240Z,100.00
2023-01-30T23:18:56.995Z,100.00
2023-01-30T23:21:28.978Z,100.00
2023-01-30T23:23:58.170Z,100.00
2023-01-30T23:26:27.158Z,100.00
2023-01-30T23:28:54.967Z,100.00
2023-01-30T23:31:24.624Z,100.00
2023-01-30T23:34:00.244Z,100.00
2023-01-30T23:36:28.314Z,100.00
2023-01-30T23:38:57.127Z,100.00
2023-01-30T23:41:27.114Z,100.00
2023-01-30T23:43:55.277Z,100.00
2023-01-30T23:46:28.256Z,100.00
2023-01-30T23:48:58.040Z,100.00
2023-01-30T23:51:28.420Z,100.00
2023-01-30T23:53:56.301Z,100.00
2023-01-30T23:56:25.036Z,100.00
2023-01-30T23:58:53.002Z,100.00
